Mill Valley, CA

11:44 AM PST on December 07, 2016 (GMT -0800)
Sycamore Park | | Change Station

Elev 15 ft 37.90 °N, 122.53 °W | Updated 104 days ago

Rain
Rain
48 °F
Feels Like 48 °F
N
8
Wind Variable Wind from East
Gusts mph

Today
High -- | Low -- °F
--% Chance of Precip.
Yesterday
High -- | Low -- °F
Precip. -- in
Pressure 30.19 in
Visibility 10.0 miles
Clouds Overcast 9500 ft
Dew Point 36 °F
Humidity 64%
Rainfall in
Snow Depth Not available.
7:13 AM 4:50 PM
First Quarter, 55% visible
METAR KOAK 071853Z 11008KT 10SM OVC095 11/01 A3019 RMK AO2 SLP223 T01060006
Pressure 30.19 in
Visibility 10.0 miles
Clouds Overcast 9500 ft
Dew Point 36 °F
Humidity 64%
Rainfall in
Snow Depth Not available.
7:13 AM 4:50 PM
First Quarter, 55% visible
METAR KOAK 071853Z 11008KT 10SM OVC095 11/01 A3019 RMK AO2 SLP223 T01060006

10-Day Weather Forecast

Almanac

Astronomy

Dec. 07, 2016 Rise Set
Actual Time
Civil Twilight
Nautical Twilight
Astronomical Twilight
Moon
Length of Visible Light
Length of Day
Tomorrow will be .
, % of the Moon is Illuminated

Today's Extremes

State Highs State Lows

Community

WunderPhotos

Upload Photos

1,956,164 photos uploaded!

WunderBlog® & News

Nearby

Air Quality

  Air Quality AQ Index Pollutant
Not available.

Snow Depth

Station Depth Elevation

Earthquake Activity

City Distance Mag. Time & Date
Minimum magnitude displayed is 2.5.

Coastal Water Temperatures

Place Temperature

Stations

Nearby Weather Stations

Station Location Temp. Windchill Dew Point Humidity Wind Precip. Elev Updated Type
                   

Watches & Warnings

There are currently no watches in effect.